Time;durP1;ratioP1;P1;durP2;ratioP2;P2;SDS_P1;SDS_P2;PMS_P1;PMS_P2;Temp;Humidity;BMP_temperature;BMP_pressure;BME280_temperature;BME280_humidity;BME280_pressure;Samples;Min_cycle;Max_cycle;Signal;HPM_P1;HPM_P2
2022/11/06 00:01:15;;;;;;;16.88;7.28;;;;;;;8.44;100.00;101371.28;5031934;28;20041;-75
2022/11/06 00:03:41;;;;;;;12.60;6.90;;;;;;;8.41;100.00;101368.75;5035242;28;20128;-75
2022/11/06 00:08:59;;;;;;;14.30;6.28;;;;;;;8.37;100.00;101354.75;5031998;28;20045;-74
2022/11/06 00:11:24;;;;;;;10.13;6.28;;;;;;;8.38;100.00;101363.56;5040885;28;20049;-74
2022/11/06 00:13:51;;;;;;;14.82;6.25;;;;;;;8.47;100.00;101352.53;5034432;28;20033;-74
2022/11/06 00:16:18;;;;;;;20.70;7.78;;;;;;;8.42;100.00;101349.22;5036786;28;20136;-75
2022/11/06 00:18:44;;;;;;;17.38;7.20;;;;;;;8.40;100.00;101361.72;5034203;28;20044;-74
2022/11/06 00:21:29;;;;;;;9.77;6.10;;;;;;;8.39;100.00;101362.66;5040862;28;20045;-74
2022/11/06 00:23:56;;;;;;;10.63;5.68;;;;;;;8.29;100.00;101370.16;5031878;28;20037;-74
2022/11/06 00:26:23;;;;;;;14.38;6.68;;;;;;;8.24;100.00;101365.06;5034549;28;20037;-74
2022/11/06 00:28:50;;;;;;;21.63;7.15;;;;;;;8.23;100.00;101366.00;5038493;28;20045;-74
2022/11/06 00:31:21;;;;;;;13.68;6.30;;;;;;;8.20;100.00;101376.75;5038278;28;20048;-74
2022/11/06 00:33:46;;;;;;;14.60;6.82;;;;;;;8.14;100.00;101384.13;5037601;28;20132;-74
2022/11/06 00:36:15;;;;;;;16.77;6.82;;;;;;;8.13;100.00;101371.75;5040520;28;20620;-74
2022/11/06 00:38:40;;;;;;;11.70;6.78;;;;;;;8.11;100.00;101374.50;5040750;28;20044;-75
2022/11/06 00:41:09;;;;;;;12.23;6.38;;;;;;;8.12;100.00;101375.34;5032345;28;20938;-74
2022/11/06 00:43:35;;;;;;;11.30;6.20;;;;;;;8.07;100.00;101382.66;5039345;28;20116;-74
2022/11/06 00:46:11;;;;;;;17.33;6.45;;;;;;;8.10;100.00;101382.53;5033885;28;20831;-74
2022/11/06 00:48:38;;;;;;;17.50;5.75;;;;;;;8.16;100.00;101380.47;5041928;28;20047;-75
2022/11/06 00:51:15;;;;;;;13.55;6.30;;;;;;;8.16;100.00;101387.56;5018976;28;20112;-75
2022/11/06 00:53:41;;;;;;;20.65;6.28;;;;;;;8.07;100.00;101393.28;5026616;28;20040;-75
2022/11/06 00:56:18;;;;;;;15.50;6.72;;;;;;;8.13;100.00;101380.59;5031404;28;20045;-74
2022/11/06 00:58:44;;;;;;;15.15;5.85;;;;;;;8.05;100.00;101372.97;5035975;28;20696;-75
2022/11/06 01:01:12;;;;;;;20.67;6.50;;;;;;;8.01;100.00;101366.06;5029712;28;20097;-74
2022/11/06 01:03:39;;;;;;;13.23;5.40;;;;;;;8.08;100.00;101381.72;5033134;28;20111;-74
2022/11/06 01:06:10;;;;;;;16.65;6.47;;;;;;;8.03;100.00;101384.59;5035180;28;20048;-74
2022/11/06 01:08:36;;;;;;;12.93;5.53;;;;;;;8.01;100.00;101370.53;5035259;28;20041;-74
2022/11/06 01:11:07;;;;;;;18.48;6.18;;;;;;;8.01;100.00;101363.41;5041057;28;20057;-74
2022/11/06 01:13:33;;;;;;;12.40;5.90;;;;;;;7.92;100.00;101365.59;5038252;28;20803;-74
2022/11/06 01:15:58;;;;;;;13.18;6.30;;;;;;;7.92;100.00;101352.34;5033953;28;20034;-74
2022/11/06 01:18:23;;;;;;;16.33;6.10;;;;;;;7.85;100.00;101364.16;5027009;28;20060;-74
2022/11/06 01:20:49;;;;;;;11.65;4.97;;;;;;;7.90;100.00;101343.59;5034167;28;20029;-74
2022/11/06 01:23:14;;;;;;;16.20;5.90;;;;;;;7.85;100.00;101353.53;5036521;28;20037;-74
2022/11/06 01:25:40;;;;;;;13.10;4.95;;;;;;;7.92;100.00;101334.59;5028521;28;20041;-75
2022/11/06 01:28:05;;;;;;;12.27;5.57;;;;;;;7.90;100.00;101336.47;5030880;28;20040;-74
2022/11/06 01:30:30;;;;;;;16.25;5.07;;;;;;;7.87;100.00;101338.41;5029810;28;20045;-75
2022/11/06 01:32:56;;;;;;;15.68;5.07;;;;;;;7.87;100.00;101328.63;5038039;28;20041;-74
2022/11/06 01:35:21;;;;;;;11.00;5.13;;;;;;;7.82;100.00;101324.47;5027567;28;20083;-74
2022/11/06 01:37:47;;;;;;;12.77;5.90;;;;;;;7.84;100.00;101318.16;5023859;28;20029;-74
2022/11/06 01:40:12;;;;;;;12.63;5.18;;;;;;;7.85;100.00;101319.88;5038643;28;20409;-76
2022/11/06 01:42:37;;;;;;;15.13;5.45;;;;;;;7.87;100.00;101322.47;5033047;28;20025;-74
2022/11/06 01:45:23;;;;;;;15.85;5.55;;;;;;;7.85;100.00;101316.38;5043015;28;20143;-74
2022/11/06 01:47:49;;;;;;;9.07;5.72;;;;;;;7.87;100.00;101307.41;5043709;28;20061;-74
2022/11/06 01:50:15;;;;;;;11.60;5.82;;;;;;;7.94;100.00;101322.13;5038924;28;20991;-74
2022/11/06 01:52:43;;;;;;;14.75;4.50;;;;;;;8.03;100.00;101321.72;5039486;28;20048;-75
2022/11/06 01:55:14;;;;;;;10.10;4.03;;;;;;;8.20;100.00;101320.97;5042781;28;20556;-74
2022/11/06 01:57:40;;;;;;;15.63;5.72;;;;;;;8.24;100.00;101313.72;5039697;28;20143;-75
2022/11/06 02:00:06;;;;;;;10.18;5.05;;;;;;;8.30;100.00;101316.09;5037139;28;20116;-74
2022/11/06 02:02:32;;;;;;;16.08;4.65;;;;;;;8.26;100.00;101312.69;5036746;28;20447;-74
2022/11/06 02:04:58;;;;;;;8.07;4.10;;;;;;;8.24;100.00;101308.41;5031487;28;20059;-74
2022/11/06 02:07:25;;;;;;;11.43;4.35;;;;;;;8.21;100.00;101305.88;5034927;28;20056;-75
2022/11/06 02:09:50;;;;;;;11.40;3.90;;;;;;;8.13;100.00;101308.00;5037443;28;20033;-74
2022/11/06 02:12:37;;;;;;;13.05;4.60;;;;;;;7.98;100.00;101302.50;5032772;28;20703;-75
2022/11/06 02:15:28;;;;;;;8.00;3.95;;;;;;;7.98;100.00;101296.28;5036726;28;20044;-74
2022/11/06 02:18:17;;;;;;;8.20;3.50;;;;;;;8.00;100.00;101297.97;5031317;28;20053;-75
2022/11/06 02:20:58;;;;;;;10.73;4.15;;;;;;;7.96;100.00;101288.41;5030619;28;20041;-74
2022/11/06 02:23:44;;;;;;;13.88;4.03;;;;;;;8.09;100.00;101296.69;5035845;28;20067;-75
2022/11/06 02:26:47;;;;;;;13.38;4.15;;;;;;;8.08;100.00;101283.44;5031150;28;20049;-76
2022/11/06 02:29:23;;;;;;;10.20;3.80;;;;;;;8.05;100.00;101287.13;5032303;28;20069;-75
2022/11/06 02:31:54;;;;;;;8.88;3.33;;;;;;;8.00;100.00;101282.03;5037778;28;20044;-75
2022/11/06 02:34:25;;;;;;;11.75;4.38;;;;;;;8.05;100.00;101277.38;5037386;28;20041;-75
2022/11/06 02:36:55;;;;;;;10.10;3.70;;;;;;;8.20;100.00;101280.25;5033485;28;20063;-74
2022/11/06 02:39:26;;;;;;;13.60;3.92;;;;;;;8.20;100.00;101273.13;5038419;28;20594;-74
2022/11/06 02:41:53;;;;;;;16.95;4.07;;;;;;;8.24;100.00;101276.53;5034947;28;20060;-75
2022/11/06 02:44:23;;;;;;;8.27;3.33;;;;;;;8.29;100.00;101271.84;5041635;28;20045;-75
2022/11/06 02:46:59;;;;;;;13.38;3.38;;;;;;;8.29;100.00;101277.16;5028816;28;20838;-75
2022/11/06 02:49:31;;;;;;;10.15;3.00;;;;;;;8.32;100.00;101275.22;5036463;28;20102;-75
2022/11/06 02:52:03;;;;;;;8.70;3.42;;;;;;;8.40;100.00;101282.88;5037733;28;20919;-75
2022/11/06 02:54:37;;;;;;;10.27;3.50;;;;;;;8.37;100.00;101276.81;5035165;28;20083;-74
2022/11/06 02:57:05;;;;;;;7.00;2.65;;;;;;;8.30;100.00;101270.91;5035458;28;20071;-74
2022/11/06 02:59:37;;;;;;;13.88;4.03;;;;;;;8.33;100.00;101273.41;5039897;28;20492;-74
2022/11/06 03:02:09;;;;;;;11.87;3.23;;;;;;;8.36;100.00;101268.00;5038845;28;20041;-75
2022/11/06 03:04:41;;;;;;;4.70;2.78;;;;;;;8.36;100.00;101252.06;5029052;28;20828;-74
2022/11/06 03:07:14;;;;;;;11.13;3.45;;;;;;;8.40;100.00;101256.28;5037081;28;20517;-75
2022/11/06 03:09:41;;;;;;;11.98;3.28;;;;;;;8.51;100.00;101261.09;5034565;28;20040;-75
2022/11/06 03:12:21;;;;;;;10.65;4.63;;;;;;;8.46;100.00;101255.13;5034417;28;20474;-74
2022/11/06 03:14:58;;;;;;;6.70;2.53;;;;;;;8.54;100.00;101261.81;5043483;28;20040;-75
2022/11/06 03:17:44;;;;;;;8.07;2.83;;;;;;;8.51;100.00;101256.63;5030617;28;20033;-74
2022/11/06 03:20:19;;;;;;;9.10;3.25;;;;;;;8.48;100.00;101264.78;5028368;28;20060;-74
2022/11/06 03:22:47;;;;;;;10.45;4.18;;;;;;;8.55;100.00;101268.84;5040855;28;20029;-75
2022/11/06 03:25:21;;;;;;;8.40;3.05;;;;;;;8.52;100.00;101265.47;5030331;28;20032;-74
2022/11/06 03:28:03;;;;;;;6.05;3.17;;;;;;;8.52;100.00;101266.31;5037500;28;20383;-74
2022/11/06 03:30:29;;;;;;;8.18;2.72;;;;;;;8.53;100.00;101265.41;5028694;28;20079;-74
2022/11/06 03:33:12;;;;;;;10.88;3.33;;;;;;;8.56;100.00;101259.06;5037848;28;20044;-75
2022/11/06 03:35:49;;;;;;;;;;;;;;;8.57;100.00;101266.97;5029089;28;20049;-75
2022/11/06 03:38:32;;;;;;;9.15;2.83;;;;;;;8.54;100.00;101255.63;5026386;28;19972;-74
2022/11/06 03:41:11;;;;;;;8.65;4.15;;;;;;;8.59;100.00;101261.59;5038126;28;20025;-74
2022/11/06 03:43:41;;;;;;;10.80;3.70;;;;;;;8.60;100.00;101265.09;5024408;28;20048;-75
2022/11/06 03:46:12;;;;;;;6.93;2.92;;;;;;;8.58;100.00;101262.50;5031144;28;20397;-74
2022/11/06 03:48:44;;;;;;;7.90;3.15;;;;;;;8.62;100.00;101257.91;5039868;28;20094;-74
2022/11/06 03:51:13;;;;;;;12.80;3.35;;;;;;;8.63;100.00;101254.31;5042138;28;20853;-75
2022/11/06 03:53:51;;;;;;;6.75;3.47;;;;;;;8.62;100.00;101256.09;5038846;28;20876;-74
2022/11/06 03:56:20;;;;;;;9.32;3.40;;;;;;;8.62;100.00;101263.22;5034015;28;20638;-74
2022/11/06 03:58:48;;;;;;;10.13;3.38;;;;;;;8.69;100.00;101249.56;5040198;28;20166;-75
2022/11/06 04:01:17;;;;;;;7.80;2.80;;;;;;;8.67;100.00;101242.59;5038538;28;20045;-74
2022/11/06 04:03:54;;;;;;;15.82;3.42;;;;;;;8.71;100.00;101250.34;5040494;28;20040;-75
2022/11/06 04:06:31;;;;;;;16.20;3.30;;;;;;;8.69;100.00;101249.56;5031270;28;20048;-74
2022/11/06 04:14:35;;;;;;;6.68;3.75;;;;;;;8.73;100.00;101244.94;5037445;28;20040;-75
2022/11/06 04:17:05;;;;;;;8.00;3.42;;;;;;;8.70;100.00;101231.81;5032706;28;20041;-74
2022/11/06 04:19:31;;;;;;;8.27;3.17;;;;;;;8.72;100.00;101230.78;5033155;28;20120;-74
2022/11/06 04:22:16;;;;;;;14.35;5.03;;;;;;;8.80;100.00;101223.31;5029940;28;20041;-74
2022/11/06 04:28:21;;;;;;;13.52;4.32;;;;;;;8.74;100.00;101220.09;5032034;28;20040;-74
2022/11/06 04:31:31;;;;;;;11.13;3.28;;;;;;;8.77;100.00;101227.91;5023661;28;20083;-74
2022/11/06 04:34:03;;;;;;;13.80;3.78;;;;;;;8.80;100.00;101223.31;5033226;28;20055;-74
2022/11/06 04:36:43;;;;;;;9.95;3.38;;;;;;;8.75;100.00;101217.38;5034658;28;20037;-74
2022/11/06 04:39:30;;;;;;;8.88;3.08;;;;;;;8.78;100.00;101217.19;5029021;28;20036;-74
2022/11/06 04:42:04;;;;;;;7.30;3.05;;;;;;;8.78;100.00;101208.34;5032182;28;20057;-75
2022/11/06 04:44:40;;;;;;;13.80;2.65;;;;;;;8.79;100.00;101204.78;5040612;28;20048;-75
2022/11/06 04:47:10;;;;;;;10.27;2.85;;;;;;;8.79;100.00;101212.75;5039497;28;20933;-75
2022/11/06 04:49:39;;;;;;;15.23;2.90;;;;;;;8.82;100.00;101209.94;5031391;28;20764;-74
2022/11/06 04:52:10;;;;;;;9.95;2.80;;;;;;;8.87;100.00;101197.25;5037245;28;20485;-74
2022/11/06 04:54:35;;;;;;;8.40;2.88;;;;;;;8.86;100.00;101192.88;5011661;28;20124;-74
2022/11/06 04:57:02;;;;;;;6.70;2.53;;;;;;;8.77;100.00;101188.88;5030902;28;20033;-74
2022/11/06 04:59:31;;;;;;;12.10;3.63;;;;;;;8.72;100.00;101180.28;5026521;28;20367;-75
2022/11/06 05:01:56;;;;;;;9.82;2.72;;;;;;;8.64;100.00;101179.81;5030325;28;20048;-74
2022/11/06 05:04:22;;;;;;;10.30;3.03;;;;;;;8.61;100.00;101172.00;5028516;28;20493;-74
2022/11/06 05:06:47;;;;;;;11.88;3.85;;;;;;;8.57;100.00;101171.28;5027707;28;20088;-74
2022/11/06 05:09:13;;;;;;;13.98;3.58;;;;;;;8.55;100.00;101177.63;5024392;28;21777;-74
2022/11/06 05:11:38;;;;;;;13.63;2.90;;;;;;;8.52;100.00;101175.09;5036296;28;20499;-74
2022/11/06 05:14:04;;;;;;;10.02;3.35;;;;;;;8.56;100.00;101177.53;5033651;28;20505;-75
2022/11/06 05:16:29;;;;;;;12.02;2.92;;;;;;;8.57;100.00;101171.28;5037339;28;20223;-75
2022/11/06 05:18:55;;;;;;;17.15;3.45;;;;;;;8.57;100.00;101179.25;5032636;28;20036;-74
2022/11/06 05:24:05;;;;;;;14.88;3.20;;;;;;;8.50;100.00;101175.19;5033700;28;20164;-74
2022/11/06 05:26:30;;;;;;;26.20;4.15;;;;;;;8.50;100.00;101177.84;5042995;28;20132;-74
2022/11/06 05:28:56;;;;;;;12.60;3.78;;;;;;;8.46;100.00;101173.59;5043448;28;20040;-75
2022/11/06 05:31:21;;;;;;;10.88;3.95;;;;;;;8.40;100.00;101173.06;5043551;28;20049;-75
2022/11/06 05:33:47;;;;;;;6.30;2.50;;;;;;;8.39;100.00;101169.53;5039829;28;20056;-75
2022/11/06 05:36:12;;;;;;;9.38;3.42;;;;;;;8.34;100.00;101173.31;5039874;28;20126;-75
2022/11/06 05:38:38;;;;;;;6.72;3.03;;;;;;;8.30;100.00;101172.59;5031498;28;20052;-74
2022/11/06 05:41:03;;;;;;;18.27;4.20;;;;;;;8.29;100.00;101178.88;5038851;28;20048;-74
2022/11/06 05:43:28;;;;;;;10.05;3.22;;;;;;;8.37;100.00;101176.72;5043338;28;20152;-75
2022/11/06 05:45:54;;;;;;;7.30;3.05;;;;;;;8.36;100.00;101174.09;5042282;28;20037;-75
2022/11/06 05:48:19;;;;;;;11.65;4.13;;;;;;;8.42;100.00;101164.06;5040442;28;20044;-75
2022/11/06 05:50:45;;;;;;;13.38;3.40;;;;;;;8.39;100.00;101164.22;5033094;28;20151;-74
2022/11/06 05:53:14;;;;;;;8.38;3.55;;;;;;;8.41;100.00;101164.13;5028458;28;20487;-74
2022/11/06 05:55:39;;;;;;;9.43;3.15;;;;;;;8.46;100.00;101156.81;5030695;28;20048;-74
2022/11/06 05:58:04;;;;;;;14.23;2.97;;;;;;;8.49;100.00;101156.66;5034978;28;20045;-75
2022/11/06 06:00:30;;;;;;;6.53;3.45;;;;;;;8.50;100.00;101159.22;5038585;28;20542;-74
2022/11/06 06:02:55;;;;;;;13.77;3.78;;;;;;;8.54;100.00;101146.66;5025161;28;20076;-73
2022/11/06 06:05:21;;;;;;;13.82;3.20;;;;;;;8.55;100.00;101148.38;5043336;28;20045;-74
2022/11/06 06:07:46;;;;;;;17.30;3.30;;;;;;;8.59;100.00;101149.94;5041351;28;20051;-74
2022/11/06 06:10:12;;;;;;;9.60;3.25;;;;;;;8.54;100.00;101141.34;5036024;28;20041;-74
2022/11/06 06:12:38;;;;;;;11.75;3.17;;;;;;;8.60;100.00;101133.06;5030966;28;20048;-74
2022/11/06 06:15:05;;;;;;;10.15;3.28;;;;;;;8.64;100.00;101134.63;5039948;28;20478;-73
2022/11/06 06:17:30;;;;;;;12.55;3.20;;;;;;;8.60;100.00;101138.38;5032957;28;20036;-74
2022/11/06 06:19:56;;;;;;;6.22;2.90;;;;;;;8.63;100.00;101132.88;5037824;28;20029;-75
2022/11/06 06:22:21;;;;;;;9.70;2.90;;;;;;;8.70;100.00;101134.31;5038639;28;20087;-73
2022/11/06 06:24:47;;;;;;;6.40;2.42;;;;;;;8.73;100.00;101125.31;5041630;28;20052;-74
2022/11/06 06:27:12;;;;;;;8.07;2.80;;;;;;;8.75;100.00;101134.06;5020702;28;20067;-74
2022/11/06 06:29:38;;;;;;;16.45;3.13;;;;;;;8.72;100.00;101134.22;5042280;28;20397;-74
2022/11/06 06:32:04;;;;;;;10.07;2.92;;;;;;;8.78;100.00;101131.25;5042971;28;20811;-75
2022/11/06 06:34:29;;;;;;;13.68;3.35;;;;;;;8.80;100.00;101130.25;5036980;28;20041;-74
2022/11/06 06:36:54;;;;;;;7.05;3.08;;;;;;;8.80;100.00;101137.38;5040039;28;21594;-74
2022/11/06 06:39:20;;;;;;;8.32;2.60;;;;;;;8.82;100.00;101138.13;5037629;28;20045;-74
2022/11/06 06:41:47;;;;;;;12.20;3.47;;;;;;;8.89;100.00;101142.22;5039461;28;20056;-74
2022/11/06 06:44:13;;;;;;;13.90;2.95;;;;;;;8.89;100.00;101138.69;5041168;28;20076;-75
2022/11/06 06:46:39;;;;;;;12.95;3.00;;;;;;;8.96;100.00;101134.78;5034755;28;20033;-74
2022/11/06 06:49:04;;;;;;;13.70;3.08;;;;;;;8.95;100.00;101139.22;5034193;28;20060;-74
2022/11/06 06:51:30;;;;;;;10.90;3.42;;;;;;;8.95;100.00;101128.59;5033349;28;20039;-74
2022/11/06 06:53:55;;;;;;;9.15;3.53;;;;;;;8.95;100.00;101136.56;5039509;28;20056;-74
2022/11/06 06:56:21;;;;;;;13.85;3.35;;;;;;;8.95;100.00;101125.94;5025848;28;20045;-73
2022/11/06 06:58:46;;;;;;;4.50;2.40;;;;;;;9.00;100.00;101133.69;5043548;28;20599;-74
2022/11/06 07:01:12;;;;;;;14.02;2.90;;;;;;;9.05;100.00;101134.28;5042543;28;20055;-74
2022/11/06 07:03:38;;;;;;;13.50;3.28;;;;;;;9.08;100.00;101120.81;5043313;28;20110;-74
2022/11/06 07:06:05;;;;;;;8.52;2.70;;;;;;;9.14;100.00;101138.28;5015926;28;20740;-75
2022/11/06 07:08:31;;;;;;;11.02;2.70;;;;;;;9.17;100.00;101125.66;5040966;28;20711;-74
2022/11/06 07:11:05;;;;;;;10.90;2.95;;;;;;;9.16;100.00;101134.59;5037384;28;20048;-74
2022/11/06 07:13:31;;;;;;;11.48;3.47;;;;;;;9.22;100.00;101128.06;5038067;28;20022;-74
2022/11/06 07:15:56;;;;;;;10.48;2.95;;;;;;;9.23;100.00;101122.66;5035480;28;20534;-73
2022/11/06 07:18:22;;;;;;;14.00;3.17;;;;;;;9.19;100.00;101118.47;5034149;28;20041;-73
2022/11/06 07:20:48;;;;;;;10.93;3.10;;;;;;;9.25;100.00;101119.94;5035732;28;20397;-74
2022/11/06 07:23:13;;;;;;;7.07;2.20;;;;;;;9.26;100.00;101111.00;5013766;28;20121;-74
2022/11/06 07:25:39;;;;;;;16.10;3.00;;;;;;;9.32;100.00;101110.66;5025516;28;20041;-74
2022/11/06 07:28:06;;;;;;;8.55;2.28;;;;;;;9.42;100.00;101105.72;5034982;28;20053;-74
2022/11/06 07:30:32;;;;;;;8.23;2.50;;;;;;;9.52;100.00;101105.13;5037517;28;20033;-74
2022/11/06 07:33:04;;;;;;;10.68;2.65;;;;;;;9.61;100.00;101095.78;5033771;28;20053;-74
2022/11/06 07:35:31;;;;;;;;;;;;;;;9.71;100.00;101101.47;5031872;28;20037;-73
2022/11/06 07:37:57;;;;;;;10.73;2.92;;;;;;;9.86;100.00;101093.47;5043069;28;20667;-75
2022/11/06 07:40:22;;;;;;;7.35;2.63;;;;;;;9.97;100.00;101092.84;5040097;28;20043;-74
2022/11/06 07:42:47;;;;;;;5.25;2.00;;;;;;;10.00;100.00;101092.69;5037378;28;20048;-74
2022/11/06 07:45:14;;;;;;;8.63;2.25;;;;;;;10.02;100.00;101101.44;5035492;28;20029;-73
2022/11/06 07:47:40;;;;;;;8.85;2.25;;;;;;;10.09;100.00;101104.59;5036832;28;20083;-74
2022/11/06 07:50:05;;;;;;;7.20;2.45;;;;;;;10.13;100.00;101109.69;5039400;28;20049;-74
2022/11/06 07:52:32;;;;;;;8.73;2.72;;;;;;;10.13;100.00;101108.81;5024572;28;20052;-73
2022/11/06 07:54:58;;;;;;;4.90;2.42;;;;;;;10.11;100.00;101103.59;5037196;28;20175;-73
2022/11/06 07:57:24;;;;;;;6.07;2.05;;;;;;;10.12;100.00;101094.63;5037469;28;20029;-74
2022/11/06 07:59:49;;;;;;;13.82;2.90;;;;;;;10.15;100.00;101103.44;5020218;28;20863;-74
2022/11/06 08:02:16;;;;;;;14.52;3.05;;;;;;;10.11;100.00;101103.59;5039323;28;20367;-74
2022/11/06 08:04:42;;;;;;;14.07;3.05;;;;;;;10.12;100.00;101105.31;5039793;28;20041;-74
2022/11/06 08:07:08;;;;;;;3.88;2.03;;;;;;;10.17;100.00;101101.53;5038291;28;20033;-73
2022/11/06 08:09:34;;;;;;;8.27;2.22;;;;;;;10.25;100.00;101105.50;5041036;28;20040;-75
2022/11/06 08:11:59;;;;;;;10.82;2.13;;;;;;;10.37;100.00;101112.78;5035309;28;20156;-74
2022/11/06 08:14:25;;;;;;;8.63;3.05;;;;;;;10.37;100.00;101103.91;5034192;28;20964;-75
2022/11/06 08:16:50;;;;;;;3.65;1.63;;;;;;;10.42;100.00;101090.31;5034979;28;20048;-74
2022/11/06 08:19:16;;;;;;;5.82;2.83;;;;;;;10.48;100.00;101092.63;5038629;28;20071;-74
2022/11/06 08:21:41;;;;;;;4.68;2.13;;;;;;;10.60;100.00;101097.25;5036027;28;20052;-74
2022/11/06 08:24:07;;;;;;;9.77;2.97;;;;;;;10.71;100.00;101088.59;5039679;28;20041;-74
2022/11/06 08:26:32;;;;;;;8.63;2.97;;;;;;;10.73;100.00;101084.03;5036563;28;20453;-74
2022/11/06 08:28:58;;;;;;;6.95;2.17;;;;;;;10.71;100.00;101084.13;5034218;28;20556;-74
2022/11/06 08:31:24;;;;;;;13.80;2.10;;;;;;;10.70;100.00;101097.56;5036787;28;20040;-74
2022/11/06 08:33:49;;;;;;;15.32;2.50;;;;;;;10.64;100.00;101093.41;5036393;28;20105;-75
2022/11/06 08:36:15;;;;;;;15.30;2.83;;;;;;;10.79;100.00;101091.66;5032023;28;20116;-74
2022/11/06 08:38:41;;;;;;;4.72;2.13;;;;;;;10.71;100.00;101093.94;5035466;28;20029;-74
2022/11/06 08:41:08;;;;;;;9.13;3.10;;;;;;;10.75;100.00;101087.47;5038685;28;20090;-74
2022/11/06 08:43:35;;;;;;;11.38;2.40;;;;;;;10.74;100.00;101080.41;5029143;28;20071;-74
2022/11/06 08:46:02;;;;;;;4.65;2.05;;;;;;;10.78;100.00;101079.25;5034748;28;20032;-73
2022/11/06 08:48:27;;;;;;;8.68;2.33;;;;;;;10.77;100.00;101069.56;5033744;28;20037;-74
2022/11/06 08:50:53;;;;;;;3.13;2.15;;;;;;;10.90;100.00;101067.88;5034396;28;20563;-75
2022/11/06 08:53:18;;;;;;;7.40;2.95;;;;;;;10.72;100.00;101061.81;5034193;28;20090;-74
2022/11/06 08:55:43;;;;;;;9.00;2.40;;;;;;;10.85;100.00;101057.47;5032592;28;20052;-75
2022/11/06 08:58:09;;;;;;;7.95;2.33;;;;;;;10.78;100.00;101063.25;5037632;28;20041;-75
2022/11/06 09:00:34;;;;;;;6.40;2.40;;;;;;;10.68;100.00;101054.97;5034451;28;20044;-74
2022/11/06 09:03:03;;;;;;;10.35;3.47;;;;;;;10.80;100.00;101056.03;5036420;28;20045;-74
2022/11/06 09:05:30;;;;;;;12.63;2.38;;;;;;;10.82;100.00;101057.66;5013309;28;20133;-74
2022/11/06 09:07:59;;;;;;;11.10;2.17;;;;;;;10.86;100.00;101051.19;5029935;28;20037;-73
2022/11/06 09:10:25;;;;;;;14.13;2.67;;;;;;;10.92;100.00;101041.94;5033280;28;20485;-73
2022/11/06 09:12:50;;;;;;;10.40;1.95;;;;;;;11.16;100.00;101036.91;5036386;28;20044;-74
2022/11/06 09:15:16;;;;;;;3.85;2.30;;;;;;;11.30;100.00;101039.56;5036445;28;20041;-74
2022/11/06 09:17:46;;;;;;;5.43;2.25;;;;;;;11.53;100.00;101038.06;5031958;28;20119;-74
2022/11/06 09:20:12;;;;;;;7.93;2.40;;;;;;;11.66;100.00;101038.16;5032010;28;20068;-74
2022/11/06 09:22:38;;;;;;;7.63;2.30;;;;;;;11.93;100.00;101036.38;5035081;28;20195;-75
2022/11/06 09:25:05;;;;;;;9.40;2.50;;;;;;;11.73;100.00;101027.91;5034893;28;20129;-75
2022/11/06 09:27:30;;;;;;;7.78;2.10;;;;;;;11.71;100.00;101028.03;5028981;28;20148;-73
2022/11/06 09:29:56;;;;;;;7.20;2.05;;;;;;;11.88;100.00;101021.59;5020263;28;20037;-74
2022/11/06 09:32:22;;;;;;;9.77;2.25;;;;;;;12.36;100.00;101019.28;5037068;28;20493;-74
2022/11/06 09:34:47;;;;;;;9.25;2.55;;;;;;;12.92;100.00;101014.50;5037440;28;20132;-74
2022/11/06 09:37:13;;;;;;;4.88;2.55;;;;;;;13.12;99.54;101008.59;5031375;28;20040;-73
2022/11/06 09:39:38;;;;;;;13.73;2.88;;;;;;;12.95;100.00;101007.13;5036423;28;20056;-75
2022/11/06 09:42:35;;;;;;;11.98;3.00;;;;;;;12.80;100.00;101004.63;5036985;28;20785;-74
2022/11/06 09:45:21;;;;;;;9.52;2.75;;;;;;;12.59;100.00;100989.13;5009187;28;20053;-73
2022/11/06 09:47:51;;;;;;;10.05;2.65;;;;;;;12.23;100.00;100992.50;5036581;28;20033;-74
2022/11/06 09:50:22;;;;;;;8.98;1.73;;;;;;;11.95;100.00;100989.97;5034023;28;20067;-74
2022/11/06 09:53:06;;;;;;;11.18;2.88;;;;;;;11.95;100.00;100992.66;5038739;28;20044;-73
2022/11/06 09:55:39;;;;;;;11.40;2.28;;;;;;;11.86;100.00;100986.97;5035667;28;20151;-73
2022/11/06 09:58:13;;;;;;;11.23;2.13;;;;;;;11.88;100.00;100984.19;5030960;28;20943;-74
2022/11/06 10:00:40;;;;;;;6.00;1.67;;;;;;;11.83;100.00;100978.31;5037454;28;20072;-74
2022/11/06 10:03:22;;;;;;;7.05;2.30;;;;;;;11.84;100.00;100977.34;5041269;28;20067;-75
2022/11/06 10:05:52;;;;;;;8.70;2.35;;;;;;;11.86;100.00;100978.09;5038199;28;20092;-74
2022/11/06 10:08:25;;;;;;;11.57;2.45;;;;;;;12.05;100.00;100972.38;5038756;28;20029;-75
2022/11/06 10:11:30;;;;;;;8.77;2.53;;;;;;;11.97;100.00;100972.91;5038587;28;20033;-75
2022/11/06 10:14:04;;;;;;;9.55;1.88;;;;;;;11.95;100.00;100974.81;5029994;28;20076;-74
2022/11/06 10:17:00;;;;;;;5.35;1.85;;;;;;;12.21;100.00;100965.03;5035072;28;20587;-74
2022/11/06 10:19:44;;;;;;;4.53;2.00;;;;;;;12.61;100.00;100962.28;5039654;28;20725;-73
2022/11/06 10:22:38;;;;;;;10.07;1.88;;;;;;;13.02;97.90;100967.38;5037733;28;20044;-74
2022/11/06 10:25:20;;;;;;;5.50;1.83;;;;;;;13.17;99.79;100966.28;5033513;28;20037;-74
2022/11/06 10:28:08;;;;;;;3.50;1.88;;;;;;;13.55;98.16;100959.09;5033165;28;20055;-74
2022/11/06 10:31:05;;;;;;;9.98;3.00;;;;;;;13.16;95.58;100951.19;5036649;28;20076;-74
2022/11/06 10:33:50;;;;;;;10.27;3.50;;;;;;;12.66;96.40;100947.63;5039990;28;20183;-74
2022/11/06 10:36:38;;;;;;;7.03;1.90;;;;;;;12.58;98.05;100954.47;5026802;28;20218;-74
2022/11/06 10:39:10;;;;;;;12.48;2.58;;;;;;;12.83;98.78;100934.84;5037984;28;20576;-75
2022/11/06 10:41:37;;;;;;;10.23;2.47;;;;;;;13.02;97.69;100932.56;5024606;28;20053;-74
2022/11/06 10:44:22;;;;;;;4.53;2.08;;;;;;;13.10;96.08;100935.56;5042560;28;20801;-74
2022/11/06 10:47:26;;;;;;;7.00;1.77;;;;;;;13.47;94.95;100927.53;5042411;28;20055;-74
2022/11/06 10:49:55;;;;;;;11.70;2.22;;;;;;;13.43;92.33;100921.53;5038517;28;20033;-74
2022/11/06 10:52:26;;;;;;;8.20;2.08;;;;;;;13.76;93.80;100914.66;5040584;28;20041;-75
2022/11/06 10:55:26;;;;;;;7.73;2.07;;;;;;;13.50;90.82;100921.94;5031695;28;20065;-76
2022/11/06 10:57:58;;;;;;;3.08;1.95;;;;;;;13.56;92.46;100917.97;5032061;28;20509;-75
2022/11/06 11:00:24;;;;;;;4.75;1.92;;;;;;;13.41;92.47;100920.81;5039980;28;20920;-74
2022/11/06 11:02:59;;;;;;;5.82;2.30;;;;;;;13.24;94.11;100923.88;5035186;28;20036;-74
2022/11/06 11:05:32;;;;;;;6.50;2.47;;;;;;;13.29;94.64;100912.81;5041914;28;20283;-74
2022/11/06 11:07:57;;;;;;;10.07;2.53;;;;;;;13.16;94.45;100908.34;5042455;28;20036;-74
2022/11/06 11:10:23;;;;;;;5.57;1.75;;;;;;;13.20;94.72;100919.66;5034223;28;20500;-74
2022/11/06 11:12:51;;;;;;;8.05;1.70;;;;;;;13.11;93.18;100898.94;5038121;28;20419;-74
2022/11/06 11:15:19;;;;;;;14.13;2.08;;;;;;;13.14;93.10;100886.16;5037365;28;20040;-74
2022/11/06 11:18:17;;;;;;;12.82;2.90;;;;;;;13.07;94.36;100881.38;5038560;28;20276;-73
2022/11/06 11:20:45;;;;;;;10.07;3.42;;;;;;;12.79;94.54;100886.03;5034707;28;20044;-75
2022/11/06 11:23:21;;;;;;;8.27;2.55;;;;;;;12.89;93.68;100878.22;5040296;28;20127;-75
2022/11/06 11:25:51;;;;;;;5.65;2.05;;;;;;;12.75;96.08;100875.66;5033471;28;20037;-74
2022/11/06 11:28:30;;;;;;;8.55;2.10;;;;;;;12.81;93.82;100870.75;5042655;28;20032;-75
2022/11/06 11:31:05;;;;;;;12.27;2.00;;;;;;;12.71;92.78;100872.38;5032280;28;20037;-75
2022/11/06 11:33:31;;;;;;;4.93;1.67;;;;;;;13.04;93.85;100871.72;5041192;28;20068;-75
2022/11/06 11:35:56;;;;;;;4.43;1.30;;;;;;;13.04;90.53;100869.06;5040088;28;20036;-75
2022/11/06 11:38:24;;;;;;;6.70;1.50;;;;;;;12.91;90.88;100863.75;5032352;28;20492;-76
2022/11/06 11:40:50;;;;;;;4.80;1.55;;;;;;;12.92;90.30;100864.63;5044575;28;20033;-75
2022/11/06 11:43:22;;;;;;;7.28;1.40;;;;;;;12.94;89.36;100852.81;5042571;28;20079;-75
2022/11/06 11:46:16;;;;;;;13.75;1.50;;;;;;;12.90;88.11;100851.34;5032263;28;20042;-75
2022/11/06 11:48:49;;;;;;;5.03;1.42;;;;;;;12.78;89.22;100846.03;5030408;28;20847;-75